Time;durP1;ratioP1;P1;durP2;ratioP2;P2;SDS_P1;SDS_P2;PMS_P1;PMS_P2;Temp;Humidity;BMP_temperature;BMP_pressure;BME280_temperature;BME280_humidity;BME280_pressure;Samples;Min_cycle;Max_cycle;Signal;HPM_P1;HPM_P2
2021/05/02 00:01:16;;;;;;;0;0;;;;;;;;;;;;;
2021/05/02 00:03:42;;;;;;;7.9;0.3;;;;;;;;;;;;;
2021/05/02 00:06:08;;;;;;;0;0;;;;;;;;;;;;;
2021/05/02 00:08:32;;;;;;;0;0;;;;;;;;;;;;;
2021/05/02 00:10:59;;;;;;;0;0;;;;;;;;;;;;;
2021/05/02 00:13:24;;;;;;;0;0;;;;;;;;;;;;;
2021/05/02 00:15:53;;;;;;;0.3;0.2;;;;;;;;;;;;;
2021/05/02 00:18:18;;;;;;;0;0;;;;;;;;;;;;;
2021/05/02 00:20:43;;;;;;;0.2;0.1;;;;;;;;;;;;;
2021/05/02 00:23:09;;;;;;;0;0;;;;;;;;;;;;;
2021/05/02 00:25:37;;;;;;;0.1;0.1;;;;;;;;;;;;;
2021/05/02 00:28:03;;;;;;;0;0;;;;;;;;;;;;;
2021/05/02 00:30:28;;;;;;;0;0;;;;;;;;;;;;;
2021/05/02 00:32:53;;;;;;;0.1;0.1;;;;;;;;;;;;;
2021/05/02 00:35:18;;;;;;;0;0;;;;;;;;;;;;;
2021/05/02 00:37:43;;;;;;;0;0;;;;;;;;;;;;;
2021/05/02 00:40:08;;;;;;;0;0;;;;;;;;;;;;;
2021/05/02 00:42:34;;;;;;;0;0;;;;;;;;;;;;;
2021/05/02 00:45:15;;;;;;;0;0;;;;;;;;;;;;;
2021/05/02 00:47:40;;;;;;;0.1;0;;;;;;;;;;;;;
2021/05/02 00:50:07;;;;;;;0.1;0.1;;;;;;;;;;;;;
2021/05/02 00:52:30;;;;;;;0.1;0.1;;;;;;;;;;;;;
2021/05/02 00:54:55;;;;;;;0;0;;;;;;;;;;;;;
2021/05/02 00:57:20;;;;;;;0;0;;;;;;;;;;;;;
2021/05/02 00:59:46;;;;;;;0.1;0.1;;;;;;;;;;;;;
2021/05/02 01:02:11;;;;;;;0;0;;;;;;;;;;;;;
2021/05/02 01:04:36;;;;;;;0;0;;;;;;;;;;;;;
2021/05/02 01:07:02;;;;;;;0.1;0.1;;;;;;;;;;;;;
2021/05/02 01:09:27;;;;;;;0;0;;;;;;;;;;;;;
2021/05/02 01:11:53;;;;;;;0;0;;;;;;;;;;;;;
2021/05/02 01:14:18;;;;;;;0.1;0.1;;;;;;;;;;;;;
2021/05/02 01:16:45;;;;;;;0.1;0;;;;;;;;;;;;;
2021/05/02 01:19:11;;;;;;;0.2;0.1;;;;;;;;;;;;;
2021/05/02 01:21:36;;;;;;;0.1;0.1;;;;;;;;;;;;;
2021/05/02 01:24:01;;;;;;;0;0;;;;;;;;;;;;;
2021/05/02 01:26:26;;;;;;;0;0;;;;;;;;;;;;;
2021/05/02 01:28:51;;;;;;;0;0;;;;;;;;;;;;;
2021/05/02 01:34:17;;;;;;;0;0;;;;;;;;;;;;;
2021/05/02 01:36:42;;;;;;;0;0;;;;;;;;;;;;;
2021/05/02 01:39:08;;;;;;;0;0;;;;;;;;;;;;;
2021/05/02 01:41:33;;;;;;;0;0;;;;;;;;;;;;;
2021/05/02 01:43:58;;;;;;;0.2;0.1;;;;;;;;;;;;;
2021/05/02 01:46:23;;;;;;;0.2;0;;;;;;;;;;;;;
2021/05/02 01:48:48;;;;;;;0.2;0;;;;;;;;;;;;;
2021/05/02 01:51:13;;;;;;;0;0;;;;;;;;;;;;;
2021/05/02 01:53:39;;;;;;;0;0;;;;;;;;;;;;;
2021/05/02 01:56:04;;;;;;;0.1;0.1;;;;;;;;;;;;;
2021/05/02 01:58:29;;;;;;;0;0;;;;;;;;;;;;;
2021/05/02 02:00:54;;;;;;;0;0;;;;;;;;;;;;;
2021/05/02 02:03:19;;;;;;;0;0;;;;;;;;;;;;;
2021/05/02 02:05:46;;;;;;;0;0;;;;;;;;;;;;;
2021/05/02 02:08:11;;;;;;;0;0;;;;;;;;;;;;;
2021/05/02 02:10:42;;;;;;;0;0;;;;;;;;;;;;;
2021/05/02 02:13:08;;;;;;;0;0;;;;;;;;;;;;;
2021/05/02 02:15:35;;;;;;;0.3;0.3;;;;;;;;;;;;;
2021/05/02 02:18:00;;;;;;;0.2;0.1;;;;;;;;;;;;;
2021/05/02 02:20:25;;;;;;;0;0;;;;;;;;;;;;;
2021/05/02 02:22:51;;;;;;;0.1;0.1;;;;;;;;;;;;;
2021/05/02 02:25:16;;;;;;;0;0;;;;;;;;;;;;;
2021/05/02 02:27:41;;;;;;;0;0;;;;;;;;;;;;;
2021/05/02 02:30:07;;;;;;;0;0;;;;;;;;;;;;;
2021/05/02 02:32:32;;;;;;;0;0;;;;;;;;;;;;;
2021/05/02 02:34:58;;;;;;;0.1;0.1;;;;;;;;;;;;;
2021/05/02 02:37:24;;;;;;;0;0;;;;;;;;;;;;;
2021/05/02 02:39:50;;;;;;;0.2;0.1;;;;;;;;;;;;;
2021/05/02 02:42:15;;;;;;;0;0;;;;;;;;;;;;;
2021/05/02 02:44:40;;;;;;;0;0;;;;;;;;;;;;;
2021/05/02 02:47:05;;;;;;;0;0;;;;;;;;;;;;;
2021/05/02 02:49:31;;;;;;;0.5;0.1;;;;;;;;;;;;;
2021/05/02 02:51:56;;;;;;;0;0;;;;;;;;;;;;;
2021/05/02 02:54:23;;;;;;;0;0;;;;;;;;;;;;;
2021/05/02 02:56:48;;;;;;;0;0;;;;;;;;;;;;;
2021/05/02 02:59:13;;;;;;;0.1;0.1;;;;;;;;;;;;;
2021/05/02 03:01:38;;;;;;;0.1;0.1;;;;;;;;;;;;;
2021/05/02 03:04:04;;;;;;;0.2;0.2;;;;;;;;;;;;;
2021/05/02 03:06:29;;;;;;;0.6;0.2;;;;;;;;;;;;;
2021/05/02 03:08:55;;;;;;;0.1;0.1;;;;;;;;;;;;;
2021/05/02 03:11:20;;;;;;;0;0;;;;;;;;;;;;;
2021/05/02 03:13:47;;;;;;;0;0;;;;;;;;;;;;;
2021/05/02 03:16:12;;;;;;;0;0;;;;;;;;;;;;;
2021/05/02 03:18:37;;;;;;;0;0;;;;;;;;;;;;;
2021/05/02 03:21:02;;;;;;;0.2;0.1;;;;;;;;;;;;;
2021/05/02 03:23:27;;;;;;;0.1;0.1;;;;;;;;;;;;;
2021/05/02 03:25:52;;;;;;;0.2;0.1;;;;;;;;;;;;;
2021/05/02 03:28:18;;;;;;;0.1;0.1;;;;;;;;;;;;;
2021/05/02 03:30:43;;;;;;;0.1;0.1;;;;;;;;;;;;;
2021/05/02 03:33:08;;;;;;;0;0;;;;;;;;;;;;;
2021/05/02 03:35:33;;;;;;;0.1;0.1;;;;;;;;;;;;;
2021/05/02 03:37:58;;;;;;;0.1;0.1;;;;;;;;;;;;;
2021/05/02 03:40:23;;;;;;;0;0;;;;;;;;;;;;;
2021/05/02 03:42:50;;;;;;;0;0;;;;;;;;;;;;;
2021/05/02 03:45:15;;;;;;;0.1;0.1;;;;;;;;;;;;;
2021/05/02 03:47:40;;;;;;;0.4;0.3;;;;;;;;;;;;;
2021/05/02 03:50:05;;;;;;;0.6;0.4;;;;;;;;;;;;;
2021/05/02 03:52:31;;;;;;;0.6;0.4;;;;;;;;;;;;;
2021/05/02 03:54:56;;;;;;;0.2;0.2;;;;;;;;;;;;;
2021/05/02 03:57:22;;;;;;;0.1;0.1;;;;;;;;;;;;;
2021/05/02 04:02:31;;;;;;;0;0;;;;;;;7.58;86.97461;932.7184;;;;
2021/05/02 04:04:56;;;;;;;0;0;;;;;;;7.65;86.87598;932.7487;;;;
2021/05/02 04:07:22;;;;;;;0.2;0.2;;;;;;;7.79;86.31348;932.851;;;;
2021/05/02 04:09:47;;;;;;;0.1;0.1;;;;;;;7.83;86.11816;932.8033;;;;
2021/05/02 04:12:12;;;;;;;0;0;;;;;;;7.85;86.28223;932.901;;;;
2021/05/02 04:14:40;;;;;;;0.3;0.1;;;;;;;7.86;85.91895;932.947;;;;
2021/05/02 04:17:09;;;;;;;0.1;0.1;;;;;;;7.64;84.8418;932.9832;;;;
2021/05/02 04:19:34;;;;;;;0;0;;;;;;;7.58;85.24023;933.0455;;;;
2021/05/02 04:21:59;;;;;;;0.1;0.1;;;;;;;7.33;86.57227;933.1624;;;;
2021/05/02 04:24:24;;;;;;;0.1;0.1;;;;;;;7.47;86.70313;933.1599;;;;
2021/05/02 04:26:51;;;;;;;0.1;0.1;;;;;;;7.52;86.5332;933.2222;;;;
2021/05/02 04:29:15;;;;;;;0.1;0.1;;;;;;;7.61;86.11816;933.3045;;;;
2021/05/02 04:31:43;;;;;;;0.1;0.1;;;;;;;7.68;84.7041;933.3132;;;;
2021/05/02 04:34:08;;;;;;;0;0;;;;;;;7.71;83.82422;933.2747;;;;
2021/05/02 04:36:34;;;;;;;0.1;0.1;;;;;;;7.68;83.41113;933.448;;;;
2021/05/02 04:38:59;;;;;;;0.1;0.1;;;;;;;7.46;83.98047;933.5288;;;;
2021/05/02 04:41:25;;;;;;;0;0;;;;;;;7.42;84.9375;933.4785;;;;
2021/05/02 04:43:50;;;;;;;0.1;0.1;;;;;;;7.5;84.69043;933.5792;;;;
2021/05/02 04:46:16;;;;;;;0.2;0.2;;;;;;;7.51;85.10059;933.5967;;;;
2021/05/02 04:48:41;;;;;;;0.1;0.1;;;;;;;7.64;84.87598;933.6042;;;;
2021/05/02 04:51:07;;;;;;;0;0;;;;;;;7.75;84.27539;933.6255;;;;
2021/05/02 04:53:32;;;;;;;0.2;0.2;;;;;;;7.83;84.28027;933.7115;;;;
2021/05/02 04:55:57;;;;;;;0.1;0.1;;;;;;;7.88;84.10742;933.7352;;;;
2021/05/02 04:58:22;;;;;;;0.2;0.2;;;;;;;7.85;83.70703;933.654;;;;
2021/05/02 05:00:50;;;;;;;0.1;0.1;;;;;;;8.01;83.57617;933.7382;;;;
2021/05/02 05:03:15;;;;;;;0;0;;;;;;;7.91;82.8418;933.8139;;;;
2021/05/02 05:05:41;;;;;;;0.2;0.2;;;;;;;7.78;84.32617;933.8621;;;;
2021/05/02 05:08:07;;;;;;;0;0;;;;;;;7.84;84.66797;933.9289;;;;
2021/05/02 05:10:32;;;;;;;0.1;0.1;;;;;;;7.87;84.30957;933.9316;;;;
2021/05/02 05:12:57;;;;;;;0;0;;;;;;;7.91;84.38672;933.9797;;;;
2021/05/02 05:15:29;;;;;;;0.6;0.1;;;;;;;7.93;84.26563;933.9149;;;;
2021/05/02 05:17:54;;;;;;;0.1;0.1;;;;;;;8.02;83.1582;934.0708;;;;
2021/05/02 05:20:22;;;;;;;0.2;0.1;;;;;;;8.03;82.91113;934.1519;;;;
2021/05/02 05:22:47;;;;;;;0;0;;;;;;;7.76;82.76855;934.113;;;;
2021/05/02 05:25:14;;;;;;;0.1;0.1;;;;;;;7.77;82.58887;934.2026;;;;
2021/05/02 05:27:39;;;;;;;0;0;;;;;;;7.79;82.41113;934.2172;;;;
2021/05/02 05:30:09;;;;;;;0.1;0.1;;;;;;;7.99;82.09668;934.2224;;;;
2021/05/02 05:32:33;;;;;;;0.1;0.1;;;;;;;7.93;82.08691;934.1915;;;;
2021/05/02 05:34:58;;;;;;;0;0;;;;;;;7.9;81.96777;934.2238;;;;
2021/05/02 05:37:23;;;;;;;0.1;0.1;;;;;;;7.92;81.58398;934.2595;;;;
2021/05/02 05:39:48;;;;;;;0.2;0.2;;;;;;;7.91;80.92578;934.2444;;;;
2021/05/02 05:42:13;;;;;;;0;0;;;;;;;7.99;80.00879;934.2303;;;;
2021/05/02 05:44:39;;;;;;;0;0;;;;;;;7.9;81.35352;934.3298;;;;
2021/05/02 05:47:04;;;;;;;0.1;0.1;;;;;;;8.08;81.85449;934.3404;;;;
2021/05/02 05:49:30;;;;;;;0.1;0.1;;;;;;;8.2;81.5459;934.4377;;;;
2021/05/02 05:51:55;;;;;;;1.4;0.1;;;;;;;8.1;80.76855;934.408;;;;
2021/05/02 05:54:21;;;;;;;0.2;0.2;;;;;;;8.16;81.6416;934.4761;;;;
2021/05/02 05:56:46;;;;;;;0.1;0.1;;;;;;;8.18;82.26953;934.5192;;;;
2021/05/02 05:59:12;;;;;;;0.1;0.1;;;;;;;8.13;83.30566;934.5622;;;;
2021/05/02 06:01:37;;;;;;;6.9;0.3;;;;;;;8.33;83.74121;934.5474;;;;
2021/05/02 06:04:03;;;;;;;1.1;0.7;;;;;;;8.22;82.90234;934.6136;;;;
2021/05/02 06:06:50;;;;;;;1;0.2;;;;;;;8.05;82.11035;934.6675;;;;
2021/05/02 06:09:16;;;;;;;0.1;0.1;;;;;;;8.25;81.98828;934.717;;;;
2021/05/02 06:11:41;;;;;;;0.2;0.2;;;;;;;8.41;82.09863;934.7366;;;;
2021/05/02 06:14:08;;;;;;;0.9;0.3;;;;;;;8.37;79.79688;934.7847;;;;
2021/05/02 06:16:38;;;;;;;0.2;0.2;;;;;;;8.43;79.87305;934.7395;;;;
2021/05/02 06:19:05;;;;;;;0.1;0.1;;;;;;;8.53;80.16797;934.8082;;;;
2021/05/02 06:21:30;;;;;;;0.1;0.1;;;;;;;8.52;80.60742;934.9327;;;;
2021/05/02 06:23:56;;;;;;;0.4;0.4;;;;;;;8.21;80.11719;934.9295;;;;
2021/05/02 06:26:21;;;;;;;0.1;0.1;;;;;;;8.32;80.83203;934.9392;;;;
2021/05/02 06:28:49;;;;;;;0.1;0.1;;;;;;;8.47;80.13281;935.0075;;;;
2021/05/02 06:31:13;;;;;;;0.1;0.1;;;;;;;8.68;79.43164;934.9816;;;;
2021/05/02 06:33:38;;;;;;;0;0;;;;;;;8.81;79.61719;934.9372;;;;
2021/05/02 06:36:03;;;;;;;0.4;0.4;;;;;;;8.49;79.77148;935.01;;;;
2021/05/02 06:38:29;;;;;;;0.8;0.4;;;;;;;8.19;80.25;935.0689;;;;
2021/05/02 06:40:54;;;;;;;0.2;0.2;;;;;;;7.86;82.41309;935.1077;;;;
2021/05/02 06:43:19;;;;;;;0.1;0.1;;;;;;;7.75;83.03906;935.1216;;;;
2021/05/02 06:45:44;;;;;;;0;0;;;;;;;8.14;80.90039;935.2022;;;;
2021/05/02 06:48:09;;;;;;;0.3;0.2;;;;;;;8.34;79.38086;935.2451;;;;
2021/05/02 06:50:35;;;;;;;0.1;0.1;;;;;;;8.4;77.63184;935.284;;;;
2021/05/02 06:53:02;;;;;;;0.1;0.1;;;;;;;8.38;77.86523;935.2766;;;;
2021/05/02 06:55:27;;;;;;;0;0;;;;;;;8.24;78.26074;935.2967;;;;
2021/05/02 06:57:55;;;;;;;0.1;0.1;;;;;;;8.16;77.20313;935.3208;;;;
2021/05/02 07:00:19;;;;;;;0;0;;;;;;;8.09;75.73535;935.2722;;;;
2021/05/02 07:02:46;;;;;;;0;0;;;;;;;8.22;77.15625;935.3639;;;;
2021/05/02 07:05:11;;;;;;;0;0;;;;;;;8.37;77.5459;935.4359;;;;
2021/05/02 07:07:37;;;;;;;0.1;0.1;;;;;;;8.42;77.00977;935.4431;;;;
2021/05/02 07:10:02;;;;;;;0.1;0.1;;;;;;;8.42;77.57813;935.4877;;;;
2021/05/02 07:12:29;;;;;;;0;0;;;;;;;8.59;77.24414;935.4928;;;;
2021/05/02 07:14:54;;;;;;;0;0;;;;;;;8.6;76.80371;935.4764;;;;
2021/05/02 07:17:19;;;;;;;0;0;;;;;;;8.57;76.95801;935.5983;;;;
2021/05/02 07:19:44;;;;;;;0.1;0.1;;;;;;;8.54;75.79395;935.6359;;;;
2021/05/02 07:22:10;;;;;;;0;0;;;;;;;8.65;76.15234;935.6931;;;;
2021/05/02 07:24:35;;;;;;;0.4;0.1;;;;;;;8.72;75.18848;935.6209;;;;
2021/05/02 07:27:00;;;;;;;0;0;;;;;;;8.78;73.74121;935.6494;;;;
2021/05/02 07:29:25;;;;;;;0.2;0.1;;;;;;;8.94;74.25879;935.7175;;;;
2021/05/02 07:31:51;;;;;;;0.2;0.1;;;;;;;9.09;75.40039;935.7536;;;;
2021/05/02 07:34:16;;;;;;;0.9;0.2;;;;;;;9.06;74.35938;935.7422;;;;
2021/05/02 07:36:42;;;;;;;0.1;0.1;;;;;;;8.98;75.33594;935.7894;;;;
2021/05/02 07:39:07;;;;;;;0.1;0.1;;;;;;;9.04;76.14258;935.796;;;;
2021/05/02 07:41:32;;;;;;;0.1;0.1;;;;;;;9.15;76.31152;935.8781;;;;
2021/05/02 07:43:57;;;;;;;0.1;0.1;;;;;;;8.94;77.375;935.7897;;;;
2021/05/02 07:46:22;;;;;;;0.2;0.1;;;;;;;9.54;75.44434;935.8508;;;;
2021/05/02 07:48:48;;;;;;;0;0;;;;;;;9.83;72.85059;935.8499;;;;
2021/05/02 07:51:14;;;;;;;0;0;;;;;;;9.99;70.30078;935.8519;;;;
2021/05/02 07:53:39;;;;;;;0;0;;;;;;;10.16;69.83887;935.8709;;;;
2021/05/02 07:56:05;;;;;;;0;0;;;;;;;10.47;68.03906;935.8611;;;;
2021/05/02 07:58:31;;;;;;;0.1;0.1;;;;;;;10.79;67.97363;935.8566;;;;
2021/05/02 08:00:56;;;;;;;0.1;0.1;;;;;;;10.71;67.13867;935.8992;;;;
2021/05/02 08:03:22;;;;;;;0.8;0.2;;;;;;;10.91;68.06152;935.7897;;;;
2021/05/02 08:05:47;;;;;;;0;0;;;;;;;11.15;68.37402;935.7653;;;;
2021/05/02 08:08:12;;;;;;;0.1;0.1;;;;;;;11.45;66.81934;935.8113;;;;
2021/05/02 08:10:39;;;;;;;0.1;0.1;;;;;;;11.31;65.09277;935.8976;;;;
2021/05/02 08:13:04;;;;;;;0;0;;;;;;;11.32;65.61035;935.9288;;;;
2021/05/02 08:15:33;;;;;;;0;0;;;;;;;11.2;66.01367;935.9105;;;;
2021/05/02 08:17:58;;;;;;;0.1;0.1;;;;;;;10.83;68.11719;935.9838;;;;
2021/05/02 08:20:23;;;;;;;0;0;;;;;;;10.34;69.28418;935.9683;;;;
2021/05/02 08:22:49;;;;;;;0;0;;;;;;;10.28;70.05176;935.9655;;;;
2021/05/02 08:25:14;;;;;;;0.1;0.1;;;;;;;10.24;70.02246;935.9963;;;;
2021/05/02 08:27:43;;;;;;;0;0;;;;;;;10.3;68.66211;935.9623;;;;
2021/05/02 08:30:08;;;;;;;0;0;;;;;;;10.15;68.31934;935.9783;;;;
2021/05/02 08:32:32;;;;;;;0.1;0;;;;;;;10.19;68.89551;936.0112;;;;
2021/05/02 08:34:57;;;;;;;0;0;;;;;;;10.11;69.33887;935.9931;;;;
2021/05/02 08:37:24;;;;;;;0;0;;;;;;;10.21;69.29785;936.0092;;;;
2021/05/02 08:39:49;;;;;;;0;0;;;;;;;9.81;69.72461;936.0787;;;;
2021/05/02 08:42:16;;;;;;;0;0;;;;;;;9.83;71.34766;936.0377;;;;
2021/05/02 08:44:41;;;;;;;0;0;;;;;;;9.9;70.38867;936.0485;;;;
2021/05/02 08:47:07;;;;;;;0.3;0.2;;;;;;;9.86;69.34375;935.9988;;;;
2021/05/02 08:49:32;;;;;;;0.1;0.1;;;;;;;9.86;70.89648;936.0148;;;;
2021/05/02 08:51:58;;;;;;;0.1;0.1;;;;;;;9.97;69.04395;936.0411;;;;
2021/05/02 08:54:23;;;;;;;0.1;0.1;;;;;;;9.63;72.09961;936.0037;;;;
2021/05/02 08:56:50;;;;;;;0.1;0.1;;;;;;;9.81;71.55957;936.0307;;;;
2021/05/02 08:59:15;;;;;;;0.2;0.2;;;;;;;9.79;72.00098;936.0734;;;;
2021/05/02 09:01:41;;;;;;;0;0;;;;;;;9.43;72.94336;936.1001;;;;
2021/05/02 09:04:07;;;;;;;0.2;0.1;;;;;;;9.38;73.40039;936.1747;;;;
2021/05/02 09:06:33;;;;;;;0.1;0.1;;;;;;;9.36;74.0127;936.2397;;;;
2021/05/02 09:09:00;;;;;;;0.1;0.1;;;;;;;9.41;73.69141;936.1992;;;;
2021/05/02 09:11:25;;;;;;;0.1;0.1;;;;;;;9.26;73.47168;936.2386;;;;
2021/05/02 09:13:52;;;;;;;0.5;0.3;;;;;;;9.29;73.625;936.3223;;;;
2021/05/02 09:16:21;;;;;;;0.2;0.2;;;;;;;9.17;74.94727;936.3334;;;;
2021/05/02 09:18:48;;;;;;;0.3;0.3;;;;;;;9.39;75.11035;936.2813;;;;
2021/05/02 09:21:12;;;;;;;0.2;0.2;;;;;;;9.41;74.22656;936.3928;;;;
2021/05/02 09:23:37;;;;;;;0.4;0.2;;;;;;;9.48;74.5;936.4058;;;;
2021/05/02 09:26:04;;;;;;;0.1;0.1;;;;;;;9.39;74.20117;936.3911;;;;
2021/05/02 09:28:27;;;;;;;0.4;0.3;;;;;;;9.44;74.06055;936.4625;;;;
2021/05/02 09:30:52;;;;;;;2.9;1.1;;;;;;;9.28;73.95508;936.3605;;;;
2021/05/02 09:33:17;;;;;;;2.7;1.3;;;;;;;9.27;72.64258;936.423;;;;
2021/05/02 09:35:44;;;;;;;0.7;0.4;;;;;;;9.4;72.36914;936.4754;;;;
2021/05/02 09:38:09;;;;;;;0.5;0.4;;;;;;;9.18;74.99414;936.5187;;;;
2021/05/02 09:40:34;;;;;;;10.4;3.7;;;;;;;9.35;75.25098;936.4963;;;;
2021/05/02 09:42:59;;;;;;;0.1;0.1;;;;;;;9.3;73.58203;936.5664;;;;
2021/05/02 09:45:25;;;;;;;0.1;0.1;;;;;;;9.22;74.46777;936.5926;;;;
2021/05/02 09:47:50;;;;;;;0.3;0.3;;;;;;;8.99;75.30469;936.6392;;;;
2021/05/02 09:50:16;;;;;;;0.1;0.1;;;;;;;9.06;75.81641;936.6499;;;;
2021/05/02 09:52:41;;;;;;;0.4;0.3;;;;;;;9.15;75.43359;936.6772;;;;
2021/05/02 09:55:07;;;;;;;0.5;0.4;;;;;;;9.32;74.93848;936.6858;;;;
2021/05/02 09:57:32;;;;;;;0.6;0.3;;;;;;;9.36;74.88965;936.6727;;;;
2021/05/02 09:59:57;;;;;;;0.1;0.1;;;;;;;8.74;77.77344;936.7881;;;;
2021/05/02 10:02:22;;;;;;;0.6;0.4;;;;;;;9.1;76.00586;936.7592;;;;
2021/05/02 10:04:49;;;;;;;0.2;0.2;;;;;;;9.25;75.33887;936.7622;;;;
2021/05/02 10:07:12;;;;;;;0.6;0.5;;;;;;;9.4;74.87305;936.7336;;;;
2021/05/02 10:09:38;;;;;;;0.9;0.7;;;;;;;9.54;74.93262;936.6742;;;;
2021/05/02 10:12:04;;;;;;;3.1;1.7;;;;;;;9.39;75.21289;936.7772;;;;
2021/05/02 10:14:29;;;;;;;1.4;0.8;;;;;;;9.06;76.10059;936.7849;;;;
2021/05/02 10:16:57;;;;;;;0.6;0.6;;;;;;;9.16;75.23047;936.8148;;;;
2021/05/02 10:19:23;;;;;;;0.5;0.3;;;;;;;8.95;75.89941;936.8516;;;;
2021/05/02 10:21:47;;;;;;;0.3;0.2;;;;;;;9.03;75.74316;936.8235;;;;
2021/05/02 10:24:12;;;;;;;0.6;0.3;;;;;;;8.93;76.37207;936.8361;;;;
2021/05/02 10:26:37;;;;;;;0.5;0.5;;;;;;;8.8;76.32715;936.8968;;;;
2021/05/02 10:29:03;;;;;;;0.4;0.4;;;;;;;9.2;74.49805;936.9702;;;;
2021/05/02 10:31:28;;;;;;;0.3;0.3;;;;;;;9.36;72.39551;936.9524;;;;
2021/05/02 10:33:53;;;;;;;0.4;0.4;;;;;;;9.44;70.71289;936.9799;;;;
2021/05/02 10:36:20;;;;;;;1;0.5;;;;;;;9.49;71.84766;937.0131;;;;
2021/05/02 10:38:45;;;;;;;0.4;0.4;;;;;;;9.67;71.52441;937.0201;;;;
2021/05/02 10:41:12;;;;;;;0.5;0.3;;;;;;;9.69;72.12109;936.9949;;;;
2021/05/02 10:43:37;;;;;;;1;0.7;;;;;;;9.6;72.6416;937.0636;;;;
2021/05/02 10:46:04;;;;;;;0.7;0.7;;;;;;;9.67;68.8252;937.0034;;;;
2021/05/02 10:48:30;;;;;;;0.6;0.5;;;;;;;10.04;67.48047;937.0617;;;;
2021/05/02 10:50:55;;;;;;;0.7;0.5;;;;;;;10.12;70.47168;937.0402;;;;
2021/05/02 10:53:22;;;;;;;1.2;1.1;;;;;;;9.8;69.88281;937.0772;;;;
2021/05/02 10:55:47;;;;;;;1.6;0.8;;;;;;;10.25;70.18262;937.1127;;;;
2021/05/02 10:58:12;;;;;;;0.7;0.7;;;;;;;10.73;67.96387;937.1145;;;;
2021/05/02 11:00:38;;;;;;;1.6;1.5;;;;;;;10.39;68.00293;936.9874;;;;
2021/05/02 11:03:03;;;;;;;1;0.9;;;;;;;10.03;67.0791;937.1627;;;;
2021/05/02 11:05:31;;;;;;;0.8;0.7;;;;;;;9.99;68.21582;937.2058;;;;
2021/05/02 11:07:56;;;;;;;1.2;1;;;;;;;9.88;70.08789;937.1378;;;;
2021/05/02 11:10:22;;;;;;;2.2;1.3;;;;;;;10;69.46973;937.1906;;;;
2021/05/02 11:12:47;;;;;;;1.7;1.1;;;;;;;10.08;67.56738;937.2078;;;;
2021/05/02 11:15:14;;;;;;;1.8;0.9;;;;;;;10.03;68.09473;937.2406;;;;
2021/05/02 11:17:40;;;;;;;0.9;0.8;;;;;;;10.12;67.74414;937.2272;;;;
2021/05/02 11:20:05;;;;;;;0.8;0.7;;;;;;;10.15;68.49121;937.2108;;;;
2021/05/02 11:22:30;;;;;;;1.5;1.2;;;;;;;10.11;67.44531;937.2661;;;;
2021/05/02 11:24:55;;;;;;;1.3;1;;;;;;;10.04;66.91016;937.2367;;;;
2021/05/02 11:27:24;;;;;;;0.6;0.6;;;;;;;9.89;66.30566;937.2413;;;;
2021/05/02 11:29:49;;;;;;;1;0.8;;;;;;;9.76;67.80078;937.2182;;;;
2021/05/02 11:32:12;;;;;;;1.2;1.1;;;;;;;10.08;66.53906;937.2148;;;;
2021/05/02 11:34:37;;;;;;;1;0.9;;;;;;;10.32;65.84668;937.1945;;;;
2021/05/02 11:37:04;;;;;;;1.7;1;;;;;;;10.45;65.06738;937.1911;;;;
2021/05/02 11:39:29;;;;;;;0.8;0.7;;;;;;;10.71;64.94727;937.2196;;;;
2021/05/02 11:41:55;;;;;;;1.5;1.2;;;;;;;10.61;64.1084;937.1719;;;;
2021/05/02 11:44:20;;;;;;;2.9;1.6;;;;;;;10.7;62.70605;937.2648;;;;
2021/05/02 11:46:45;;;;;;;0.9;0.7;;;;;;;10.7;63.05957;937.257;;;;
2021/05/02 11:49:10;;;;;;;1.2;1;;;;;;;10.79;63.72559;937.2321;;;;
2021/05/02 11:51:36;;;;;;;1.1;1;;;;;;;10.74;61.52441;937.2222;;;;
2021/05/02 11:54:01;;;;;;;2.7;1.7;;;;;;;10.59;62.83887;937.1833;;;;
2021/05/02 11:56:27;;;;;;;1.3;1.1;;;;;;;10.5;61.9248;937.1947;;;;
2021/05/02 11:58:51;;;;;;;1.7;1.4;;;;;;;10.43;61.95996;937.21;;;;
2021/05/02 12:01:17;;;;;;;1.7;1.4;;;;;;;10.29;62.89648;937.2085;;;;
2021/05/02 12:03:45;;;;;;;1.8;1.4;;;;;;;10.19;62.59863;937.293;;;;
2021/05/02 12:06:07;;;;;;;2.9;1.5;;;;;;;10.05;63.96875;937.2519;;;;
2021/05/02 12:08:33;;;;;;;2;1.7;;;;;;;10.24;63.75879;937.1906;;;;
2021/05/02 12:10:59;;;;;;;1.4;1.2;;;;;;;10.26;63.05273;937.2115;;;;
2021/05/02 12:13:24;;;;;;;2.7;1.8;;;;;;;9.88;63.80664;937.2969;;;;
2021/05/02 12:15:53;;;;;;;2.4;2;;;;;;;9.99;64.24609;937.2296;;;;
2021/05/02 12:18:19;;;;;;;1.9;1.3;;;;;;;10.32;65.50391;937.2112;;;;
2021/05/02 12:20:43;;;;;;;1.9;1.4;;;;;;;10.49;64.29688;937.228;;;;
2021/05/02 12:23:10;;;;;;;1.8;1.6;;;;;;;10.27;64.5498;937.3134;;;;
2021/05/02 12:25:35;;;;;;;2.7;1.7;;;;;;;10.39;64.93164;937.3105;;;;
2021/05/02 12:28:00;;;;;;;2.5;1.6;;;;;;;10.38;64.52051;937.2849;;;;
2021/05/02 12:30:27;;;;;;;3.3;2.2;;;;;;;10.35;66.9248;937.3547;;;;
2021/05/02 12:32:52;;;;;;;2.4;1.4;;;;;;;10.3;62.41016;937.3145;;;;
2021/05/02 12:35:18;;;;;;;2.1;1.3;;;;;;;10.16;62.63867;937.3747;;;;
2021/05/02 12:38:02;;;;;;;2.9;1.8;;;;;;;10.11;65.02734;937.3003;;;;
2021/05/02 12:40:29;;;;;;;1.5;1.4;;;;;;;10.21;65.45313;937.3345;;;;
2021/05/02 12:42:54;;;;;;;3.1;2;;;;;;;10.35;65.83984;937.3564;;;;
2021/05/02 12:45:20;;;;;;;3.6;1.8;;;;;;;10.38;64.98828;937.3868;;;;
2021/05/02 12:47:46;;;;;;;2;1.8;;;;;;;10.39;66.95313;937.293;;;;
2021/05/02 12:50:12;;;;;;;3.8;1.9;;;;;;;10.33;67.70801;937.3808;;;;
2021/05/02 12:52:38;;;;;;;2.4;1.7;;;;;;;10.38;67.24805;937.2347;;;;
2021/05/02 12:55:03;;;;;;;2.1;1.4;;;;;;;10.96;63.69336;937.2837;;;;
2021/05/02 12:57:28;;;;;;;1.9;1.5;;;;;;;11.07;64.3252;937.2742;;;;
2021/05/02 12:59:57;;;;;;;1;0.9;;;;;;;11.65;62.39648;937.2419;;;;
2021/05/02 13:02:22;;;;;;;1.9;1.3;;;;;;;11.21;62.4707;937.2319;;;;
2021/05/02 13:04:45;;;;;;;2.5;1.4;;;;;;;11.49;60.89941;937.2347;;;;
2021/05/02 13:07:10;;;;;;;1;0.8;;;;;;;11.6;60.61621;937.2135;;;;
2021/05/02 13:09:35;;;;;;;1.4;1.1;;;;;;;11.35;60.2373;937.2114;;;;
2021/05/02 13:12:00;;;;;;;2.5;0.9;;;;;;;11.28;60.24023;937.2685;;;;
2021/05/02 13:14:26;;;;;;;1.5;0.9;;;;;;;11.41;61.80273;937.2424;;;;
2021/05/02 13:16:50;;;;;;;2.2;1.1;;;;;;;11.28;60.89063;937.2469;;;;
2021/05/02 13:19:15;;;;;;;1.2;1.1;;;;;;;11.16;60.45117;937.2428;;;;
2021/05/02 13:21:43;;;;;;;1.4;1.1;;;;;;;11.15;60.53027;937.2045;;;;
2021/05/02 13:24:08;;;;;;;1.1;1;;;;;;;11.17;59.11523;937.2166;;;;
2021/05/02 13:26:33;;;;;;;1.4;1;;;;;;;11.1;60.51172;937.1947;;;;
2021/05/02 13:28:59;;;;;;;1.6;1.2;;;;;;;10.78;63.01465;937.2383;;;;
2021/05/02 13:31:24;;;;;;;1.3;1.2;;;;;;;11.14;62.25586;937.2276;;;;
2021/05/02 13:33:49;;;;;;;1.7;1.1;;;;;;;11.4;61.53809;937.2045;;;;
2021/05/02 13:36:14;;;;;;;1.1;1;;;;;;;11.51;61.77246;937.2762;;;;
2021/05/02 13:38:39;;;;;;;2.3;1.6;;;;;;;11.78;60.24121;937.2136;;;;
2021/05/02 13:41:05;;;;;;;3.3;1.8;;;;;;;11.99;58.72266;937.2403;;;;
2021/05/02 13:43:30;;;;;;;2.4;1.6;;;;;;;12.07;59.43262;937.2615;;;;
2021/05/02 13:45:56;;;;;;;2.5;1.7;;;;;;;12.07;58.81445;937.1889;;;;
2021/05/02 13:48:21;;;;;;;2.6;1.4;;;;;;;11.91;59.13574;937.276;;;;
2021/05/02 13:50:47;;;;;;;2;1.7;;;;;;;11.57;56.7207;937.2453;;;;
2021/05/02 13:53:12;;;;;;;1.7;1.3;;;;;;;11.55;58.24121;937.2405;;;;
2021/05/02 13:55:40;;;;;;;3.3;1.5;;;;;;;11.72;58.95117;937.2062;;;;
2021/05/02 13:58:06;;;;;;;2.5;1.6;;;;;;;11.74;59.41113;937.2279;;;;
2021/05/02 14:00:32;;;;;;;3.1;1.6;;;;;;;12.09;58.79395;937.1633;;;;
2021/05/02 14:02:58;;;;;;;1.9;1.7;;;;;;;12.23;58.6416;937.2037;;;;
2021/05/02 14:05:22;;;;;;;2.9;1.4;;;;;;;12.37;57.62793;937.1464;;;;
2021/05/02 14:07:47;;;;;;;2.1;1.6;;;;;;;12.32;59.47754;937.1752;;;;
2021/05/02 14:10:13;;;;;;;1.9;1.5;;;;;;;12.48;58.05469;937.1675;;;;
2021/05/02 14:12:38;;;;;;;1.4;1.3;;;;;;;12.61;58.69238;937.1021;;;;
2021/05/02 14:15:07;;;;;;;3.4;1.4;;;;;;;13;56.42676;937.1309;;;;
2021/05/02 14:17:32;;;;;;;3.3;1.6;;;;;;;13;57.17285;937.1365;;;;
2021/05/02 14:19:57;;;;;;;1.9;1.5;;;;;;;13.2;53.39648;937.0983;;;;
2021/05/02 14:22:23;;;;;;;1.2;1.1;;;;;;;13.34;54.00977;937.0829;;;;
2021/05/02 14:24:47;;;;;;;2.5;1.5;;;;;;;13.4;51.74316;937.1124;;;;
2021/05/02 14:27:12;;;;;;;1.7;1.3;;;;;;;13.49;53.08594;937.1284;;;;
2021/05/02 14:29:37;;;;;;;2;0.9;;;;;;;13.59;52.23633;937.1624;;;;
2021/05/02 14:32:02;;;;;;;1.1;1;;;;;;;13.85;50.64551;937.0938;;;;
2021/05/02 14:34:27;;;;;;;1.2;1;;;;;;;14.07;49.20898;937.0848;;;;
2021/05/02 14:36:55;;;;;;;1.3;1.1;;;;;;;13.49;49.38477;937.1124;;;;
2021/05/02 14:39:19;;;;;;;3.4;1.3;;;;;;;13.61;49.50195;937.0863;;;;
2021/05/02 14:41:46;;;;;;;2.6;1.2;;;;;;;13.36;53.46191;937.0694;;;;
2021/05/02 14:44:14;;;;;;;2.4;1.1;;;;;;;12.98;55.57324;937.1278;;;;
2021/05/02 14:46:39;;;;;;;1.4;1;;;;;;;13.05;55.6748;937.1575;;;;
2021/05/02 14:49:16;;;;;;;1.1;1;;;;;;;12.41;54.91504;937.0953;;;;
2021/05/02 14:51:39;;;;;;;1.6;1.3;;;;;;;12.14;58.49121;937.0613;;;;
2021/05/02 14:54:04;;;;;;;1.3;1.2;;;;;;;12.45;57.86816;937.1484;;;;
2021/05/02 14:56:29;;;;;;;1.4;1.1;;;;;;;12.95;54.37598;937.1782;;;;
2021/05/02 14:58:54;;;;;;;1.1;0.9;;;;;;;13.07;52.63379;937.1295;;;;
2021/05/02 15:01:20;;;;;;;1.1;1;;;;;;;12.89;51.93359;937.1336;;;;
2021/05/02 15:03:45;;;;;;;1.1;0.8;;;;;;;13.23;51.25195;937.0793;;;;
2021/05/02 15:06:12;;;;;;;0.7;0.7;;;;;;;13.28;50.71777;937.116;;;;
2021/05/02 15:08:37;;;;;;;0.6;0.6;;;;;;;13.31;50.375;937.0695;;;;
2021/05/02 15:11:02;;;;;;;1.3;1.2;;;;;;;13.34;51.11426;937.079;;;;
2021/05/02 15:13:27;;;;;;;4.1;1.1;;;;;;;13.38;50.55664;937.0797;;;;
2021/05/02 15:16:04;;;;;;;2.1;0.8;;;;;;;12.95;53.38867;937.0391;;;;
2021/05/02 15:18:30;;;;;;;3.1;1.1;;;;;;;12.95;50.80566;936.9775;;;;
2021/05/02 15:20:55;;;;;;;1;0.9;;;;;;;13.05;50.82813;937.0712;;;;
2021/05/02 15:23:21;;;;;;;2;0.8;;;;;;;13.14;52.97461;937.0542;;;;
2021/05/02 15:25:46;;;;;;;1;0.9;;;;;;;12.83;57.71191;937.0393;;;;
2021/05/02 15:28:12;;;;;;;1.8;1.1;;;;;;;12.61;58.58984;937.0884;;;;
2021/05/02 15:30:37;;;;;;;0.7;0.7;;;;;;;12.37;59.2793;937.0266;;;;
2021/05/02 15:33:03;;;;;;;1;0.9;;;;;;;12.32;58.125;937.0714;;;;
2021/05/02 15:35:28;;;;;;;1.5;1;;;;;;;12.52;53.51855;937.0941;;;;
2021/05/02 15:37:53;;;;;;;1.5;1;;;;;;;12.66;53.65039;937.0775;;;;
2021/05/02 15:40:18;;;;;;;1.2;0.8;;;;;;;12.65;53.06445;937.0919;;;;
2021/05/02 15:42:44;;;;;;;0.8;0.8;;;;;;;12.82;54.24414;937.0992;;;;
2021/05/02 15:45:09;;;;;;;1.3;0.8;;;;;;;12.75;53.05371;937.0759;;;;
2021/05/02 15:47:34;;;;;;;0.8;0.8;;;;;;;12.38;55.95605;937.0673;;;;
2021/05/02 15:50:00;;;;;;;1.2;0.8;;;;;;;12.58;52.62012;937.0701;;;;
2021/05/02 15:52:25;;;;;;;1.1;0.9;;;;;;;12.82;51.40918;937.0873;;;;